createdAt,value
2019-03-10T00:00:06.161Z,990.06
2019-03-10T00:01:06.248Z,990.06
2019-03-10T00:02:06.333Z,990.10
2019-03-10T00:03:06.424Z,990.12
2019-03-10T00:04:06.513Z,990.11
2019-03-10T00:05:06.602Z,990.10
2019-03-10T00:06:06.693Z,990.08
2019-03-10T00:07:06.787Z,990.07
2019-03-10T00:08:07.973Z,990.06
2019-03-10T00:09:06.984Z,990.07
2019-03-10T00:10:07.056Z,990.08
2019-03-10T00:11:07.147Z,990.08
2019-03-10T00:12:07.239Z,990.03
2019-03-10T00:13:07.344Z,990.02
2019-03-10T00:14:07.455Z,990.01
2019-03-10T00:15:07.524Z,990.01
2019-03-10T00:16:07.617Z,989.99
2019-03-10T00:17:07.706Z,990.02
2019-03-10T00:18:07.797Z,989.92
2019-03-10T00:19:07.891Z,989.95
2019-03-10T00:20:07.978Z,989.88
2019-03-10T00:21:08.067Z,989.95
2019-03-10T00:22:08.159Z,989.92
2019-03-10T00:23:08.246Z,989.85
2019-03-10T00:24:08.336Z,989.88
2019-03-10T00:25:08.427Z,989.88
2019-03-10T00:26:08.515Z,989.84
2019-03-10T00:27:08.608Z,989.83
2019-03-10T00:28:08.725Z,989.86
2019-03-10T00:29:08.787Z,989.86
2019-03-10T00:30:08.891Z,989.84
2019-03-10T00:31:08.967Z,989.82
2019-03-10T00:32:09.051Z,989.85
2019-03-10T00:33:09.143Z,989.80
2019-03-10T00:34:09.234Z,989.81
2019-03-10T00:35:09.327Z,989.88
2019-03-10T00:36:09.418Z,989.91
2019-03-10T00:37:09.506Z,989.86
2019-03-10T00:38:09.597Z,989.85
2019-03-10T00:39:09.686Z,989.80
2019-03-10T00:40:09.777Z,989.83
2019-03-10T00:41:09.866Z,989.86
2019-03-10T00:42:09.956Z,989.87
2019-03-10T00:43:10.043Z,989.80
2019-03-10T00:44:10.130Z,989.83
2019-03-10T00:45:10.220Z,989.82
2019-03-10T00:46:10.309Z,989.89
2019-03-10T00:47:10.396Z,989.88
2019-03-10T00:48:10.489Z,989.84
2019-03-10T00:49:10.579Z,989.83
2019-03-10T00:50:10.674Z,989.85
2019-03-10T00:51:10.761Z,989.83
2019-03-10T00:52:10.855Z,989.85
2019-03-10T00:53:10.957Z,989.81
2019-03-10T00:54:11.062Z,989.84
2019-03-10T00:55:11.157Z,989.88
2019-03-10T00:56:11.246Z,989.92
2019-03-10T00:57:11.332Z,989.89
2019-03-10T00:58:11.420Z,989.87
2019-03-10T00:59:11.508Z,989.89
2019-03-10T01:00:11.600Z,989.89
2019-03-10T01:01:11.688Z,989.87
2019-03-10T01:02:11.777Z,989.86
2019-03-10T01:03:11.866Z,989.89
2019-03-10T01:04:11.956Z,989.90
2019-03-10T01:05:12.048Z,989.91
2019-03-10T01:06:12.131Z,989.88
2019-03-10T01:07:12.224Z,989.90
2019-03-10T01:08:12.315Z,989.84
2019-03-10T01:09:12.402Z,989.78
2019-03-10T01:10:12.507Z,989.76
2019-03-10T01:11:12.572Z,989.80
2019-03-10T01:12:12.670Z,989.78
2019-03-10T01:13:12.802Z,989.75
2019-03-10T01:14:14.439Z,989.73
2019-03-10T01:15:12.984Z,989.72
2019-03-10T01:16:13.043Z,989.65
2019-03-10T01:17:13.132Z,989.66
2019-03-10T01:18:13.222Z,989.60
2019-03-10T01:19:13.310Z,989.58
2019-03-10T01:20:13.401Z,989.48
2019-03-10T01:21:13.487Z,989.44
2019-03-10T01:22:13.618Z,989.43
2019-03-10T01:23:13.667Z,989.39
2019-03-10T01:24:13.757Z,989.33
2019-03-10T01:25:13.852Z,989.32
2019-03-10T01:26:13.939Z,989.38
2019-03-10T01:27:14.017Z,989.37
2019-03-10T01:28:14.110Z,989.39
2019-03-10T01:29:14.200Z,989.43
2019-03-10T01:30:14.286Z,989.42
2019-03-10T01:31:14.376Z,989.40
2019-03-10T01:32:14.467Z,989.45
2019-03-10T01:33:14.558Z,989.40
2019-03-10T01:34:14.651Z,989.40
2019-03-10T01:35:14.759Z,989.45
2019-03-10T01:36:14.824Z,989.46
2019-03-10T01:37:14.914Z,989.43
2019-03-10T01:38:15.003Z,989.43
2019-03-10T01:39:15.095Z,989.40
2019-03-10T01:40:15.188Z,989.46
2019-03-10T01:41:15.276Z,989.50
2019-03-10T01:42:15.367Z,989.44
2019-03-10T01:43:15.461Z,989.41
2019-03-10T01:44:15.536Z,989.38
2019-03-10T01:45:15.626Z,989.38
2019-03-10T01:46:15.717Z,989.32
2019-03-10T01:47:15.827Z,989.34
2019-03-10T01:48:15.918Z,989.29
2019-03-10T01:49:16.007Z,989.26
2019-03-10T01:50:16.095Z,989.18
2019-03-10T01:51:16.186Z,989.17
2019-03-10T01:52:16.294Z,989.11
2019-03-10T01:53:25.288Z,989.14
2019-03-10T01:54:16.498Z,989.17
2019-03-10T01:55:16.544Z,989.17
2019-03-10T01:56:16.636Z,989.13
2019-03-10T01:57:16.725Z,989.14
2019-03-10T01:58:16.823Z,989.08
2019-03-10T01:59:16.911Z,989.04
2019-03-10T02:00:17.044Z,989.05
2019-03-10T02:01:17.091Z,989.04
2019-03-10T02:02:25.262Z,989.00
2019-03-10T02:03:17.275Z,989.03
2019-03-10T02:04:17.364Z,989.00
2019-03-10T02:05:17.453Z,989.00
2019-03-10T02:06:17.556Z,988.95
2019-03-10T02:07:17.646Z,988.95
2019-03-10T02:08:17.736Z,988.97
2019-03-10T02:09:17.823Z,989.00
2019-03-10T02:10:17.918Z,988.99
2019-03-10T02:11:18.003Z,988.97
2019-03-10T02:12:18.094Z,988.98
2019-03-10T02:13:18.183Z,988.99
2019-03-10T02:14:18.270Z,988.94
2019-03-10T02:15:18.359Z,988.89
2019-03-10T02:16:18.451Z,988.85
2019-03-10T02:17:18.538Z,988.76
2019-03-10T02:18:18.634Z,988.74
2019-03-10T02:19:18.708Z,988.62
2019-03-10T02:20:18.800Z,988.59
2019-03-10T02:21:18.887Z,988.51
2019-03-10T02:22:19.002Z,988.55
2019-03-10T02:23:19.053Z,988.54
2019-03-10T02:24:23.658Z,988.55
2019-03-10T02:25:19.222Z,988.52
2019-03-10T02:26:19.314Z,988.39
2019-03-10T02:27:19.405Z,988.39
2019-03-10T02:28:19.496Z,988.41
2019-03-10T02:29:19.585Z,988.37
2019-03-10T02:30:19.676Z,988.40
2019-03-10T02:31:19.791Z,988.39
2019-03-10T02:32:19.858Z,988.37
2019-03-10T02:33:19.953Z,988.28
2019-03-10T02:34:20.034Z,988.26
2019-03-10T02:35:20.132Z,988.18
2019-03-10T02:36:20.224Z,988.15
2019-03-10T02:37:20.315Z,988.17
2019-03-10T02:38:20.408Z,988.18
2019-03-10T02:39:20.506Z,988.16
2019-03-10T02:40:20.582Z,988.16
2019-03-10T02:41:20.669Z,988.22
2019-03-10T02:42:20.760Z,988.20
2019-03-10T02:43:20.860Z,988.13
2019-03-10T02:44:20.948Z,988.11
2019-03-10T02:45:21.016Z,988.07
2019-03-10T02:46:21.098Z,988.09
2019-03-10T02:47:21.186Z,988.08
2019-03-10T02:48:21.277Z,988.08
2019-03-10T02:49:21.371Z,988.03
2019-03-10T02:50:21.456Z,988.03
2019-03-10T02:51:21.543Z,988.01
2019-03-10T02:52:21.633Z,988.02
2019-03-10T02:53:21.726Z,987.94
2019-03-10T02:54:21.812Z,987.87
2019-03-10T02:55:21.902Z,987.87
2019-03-10T02:56:21.986Z,987.83
2019-03-10T02:57:22.085Z,987.74
2019-03-10T02:58:22.175Z,987.75
2019-03-10T02:59:22.263Z,987.67
2019-03-10T03:00:22.354Z,987.61
2019-03-10T03:01:22.442Z,987.64
2019-03-10T03:02:22.539Z,987.56
2019-03-10T03:03:22.619Z,987.56
2019-03-10T03:04:22.710Z,987.54
2019-03-10T03:05:22.822Z,987.51
2019-03-10T03:06:22.894Z,987.50
2019-03-10T03:07:22.997Z,987.45
2019-03-10T03:08:23.114Z,987.48
2019-03-10T03:09:23.183Z,987.41
2019-03-10T03:10:23.266Z,987.42
2019-03-10T03:11:23.390Z,987.30
2019-03-10T03:12:23.447Z,987.29
2019-03-10T03:13:30.689Z,987.27
2019-03-10T03:14:23.664Z,987.22
2019-03-10T03:15:23.769Z,987.20
2019-03-10T03:16:23.859Z,987.20
2019-03-10T03:17:23.948Z,987.21
2019-03-10T03:18:24.039Z,987.17
2019-03-10T03:19:24.128Z,987.15
2019-03-10T03:20:24.216Z,987.15
2019-03-10T03:21:24.307Z,987.11
2019-03-10T03:22:24.396Z,987.12
2019-03-10T03:23:24.490Z,987.08
2019-03-10T03:24:24.594Z,987.00
2019-03-10T03:25:24.664Z,987.03
2019-03-10T03:26:24.766Z,986.99
2019-03-10T03:27:24.959Z,986.97
2019-03-10T03:28:24.870Z,987.03
2019-03-10T03:29:24.953Z,987.04
2019-03-10T03:30:25.075Z,987.02
2019-03-10T03:31:25.139Z,987.02
2019-03-10T03:32:25.230Z,987.00
2019-03-10T03:33:25.317Z,987.02
2019-03-10T03:34:25.414Z,987.02
2019-03-10T03:35:25.497Z,986.96
2019-03-10T03:36:25.585Z,986.95
2019-03-10T03:37:25.674Z,986.92
2019-03-10T03:38:25.763Z,986.85
2019-03-10T03:39:25.860Z,986.90
2019-03-10T03:40:25.943Z,986.86
2019-03-10T03:41:26.038Z,986.87
2019-03-10T03:42:26.116Z,986.89
2019-03-10T03:43:26.204Z,986.81
2019-03-10T03:44:26.313Z,986.81
2019-03-10T03:45:26.397Z,986.81
2019-03-10T03:46:26.493Z,986.80
2019-03-10T03:47:26.579Z,986.73
2019-03-10T03:48:26.687Z,986.73
2019-03-10T03:49:26.829Z,986.71
2019-03-10T03:50:26.926Z,986.71
2019-03-10T03:51:27.017Z,986.69
2019-03-10T03:52:27.142Z,986.64
2019-03-10T03:53:27.229Z,986.62
2019-03-10T03:54:27.322Z,986.59
2019-03-10T03:55:27.410Z,986.53
2019-03-10T03:56:27.498Z,986.52
2019-03-10T03:57:27.590Z,986.52
2019-03-10T03:58:27.678Z,986.51
2019-03-10T03:59:27.785Z,986.52
2019-03-10T04:00:27.860Z,986.54
2019-03-10T04:01:27.950Z,986.53
2019-03-10T04:02:28.039Z,986.54
2019-03-10T04:03:28.129Z,986.50
2019-03-10T04:04:28.217Z,986.52
2019-03-10T04:05:28.311Z,986.51
2019-03-10T04:06:28.398Z,986.47
2019-03-10T04:07:28.489Z,986.43
2019-03-10T04:08:28.583Z,986.44
2019-03-10T04:09:28.668Z,986.43
2019-03-10T04:10:28.795Z,986.40
2019-03-10T04:11:28.848Z,986.37
2019-03-10T04:12:28.950Z,986.38
2019-03-10T04:13:29.050Z,986.38
2019-03-10T04:14:29.142Z,986.37
2019-03-10T04:15:29.228Z,986.34
2019-03-10T04:16:29.316Z,986.34
2019-03-10T04:17:29.406Z,986.30
2019-03-10T04:18:29.499Z,986.26
2019-03-10T04:19:29.588Z,986.26
2019-03-10T04:20:29.681Z,986.20
2019-03-10T04:21:29.766Z,986.18
2019-03-10T04:22:29.858Z,986.17
2019-03-10T04:23:29.953Z,986.11
2019-03-10T04:24:30.048Z,986.14
2019-03-10T04:25:30.138Z,986.06
2019-03-10T04:26:30.227Z,986.04
2019-03-10T04:27:30.309Z,985.96
2019-03-10T04:28:30.397Z,985.97
2019-03-10T04:29:30.490Z,985.98
2019-03-10T04:30:30.584Z,985.92
2019-03-10T04:31:30.674Z,985.90
2019-03-10T04:32:30.792Z,985.94
2019-03-10T04:33:30.857Z,985.91
2019-03-10T04:34:30.948Z,985.91
2019-03-10T04:35:31.044Z,985.86
2019-03-10T04:36:31.136Z,985.81
2019-03-10T04:37:31.224Z,985.79
2019-03-10T04:38:31.318Z,985.84
2019-03-10T04:39:31.411Z,985.84
2019-03-10T04:40:31.493Z,985.72
2019-03-10T04:41:31.582Z,985.73
2019-03-10T04:42:31.698Z,985.66
2019-03-10T04:43:31.875Z,985.62
2019-03-10T04:44:31.826Z,985.59
2019-03-10T04:45:31.916Z,985.56
2019-03-10T04:46:32.011Z,985.51
2019-03-10T04:47:32.095Z,985.47
2019-03-10T04:48:32.183Z,985.49
2019-03-10T04:49:32.274Z,985.45
2019-03-10T04:50:32.364Z,985.42
2019-03-10T04:51:32.463Z,985.44
2019-03-10T04:52:32.543Z,985.44
2019-03-10T04:53:32.634Z,985.41
2019-03-10T04:54:32.722Z,985.38
2019-03-10T04:55:32.841Z,985.36
2019-03-10T04:56:32.957Z,985.32
2019-03-10T04:57:33.064Z,985.25
2019-03-10T04:58:33.160Z,985.26
2019-03-10T04:59:33.250Z,985.19
2019-03-10T05:00:33.341Z,985.14
2019-03-10T05:01:33.429Z,985.06
2019-03-10T05:02:33.521Z,985.02
2019-03-10T05:03:33.612Z,984.98
2019-03-10T05:04:33.703Z,985.00
2019-03-10T05:05:33.862Z,984.96
2019-03-10T05:06:33.882Z,984.96
2019-03-10T05:07:33.974Z,984.97
2019-03-10T05:08:34.075Z,985.02
2019-03-10T05:09:34.152Z,985.00
2019-03-10T05:10:34.243Z,984.98
2019-03-10T05:11:34.336Z,984.98
2019-03-10T05:12:34.428Z,984.98
2019-03-10T05:13:34.518Z,984.96
2019-03-10T05:14:34.611Z,984.93
2019-03-10T05:15:34.702Z,984.92
2019-03-10T05:16:34.796Z,984.85
2019-03-10T05:17:34.967Z,984.87
2019-03-10T05:18:34.976Z,984.87
2019-03-10T05:19:35.062Z,984.92
2019-03-10T05:20:35.152Z,984.91
2019-03-10T05:21:35.243Z,984.93
2019-03-10T05:22:35.347Z,984.93
2019-03-10T05:23:35.434Z,984.89
2019-03-10T05:24:35.522Z,984.89
2019-03-10T05:25:35.618Z,984.94
2019-03-10T05:26:35.704Z,984.90
2019-03-10T05:27:35.798Z,984.88
2019-03-10T05:28:35.884Z,984.86
2019-03-10T05:29:35.974Z,984.81
2019-03-10T05:30:36.071Z,984.76
2019-03-10T05:31:36.161Z,984.79
2019-03-10T05:32:36.248Z,984.79
2019-03-10T05:33:36.349Z,984.78
2019-03-10T05:34:36.432Z,984.77
2019-03-10T05:35:36.520Z,984.73
2019-03-10T05:36:36.612Z,984.73
2019-03-10T05:37:36.702Z,984.69
2019-03-10T05:38:36.880Z,984.74
2019-03-10T05:39:36.914Z,984.72
2019-03-10T05:40:36.972Z,984.74
2019-03-10T05:41:37.032Z,984.67
2019-03-10T05:42:37.164Z,984.66
2019-03-10T05:43:37.210Z,984.64
2019-03-10T05:44:37.298Z,984.57
2019-03-10T05:45:37.386Z,984.55
2019-03-10T05:46:37.477Z,984.55
2019-03-10T05:47:37.568Z,984.54
2019-03-10T05:48:37.661Z,984.52
2019-03-10T05:49:37.754Z,984.55
2019-03-10T05:50:37.844Z,984.53
2019-03-10T05:51:37.931Z,984.53
2019-03-10T05:52:38.036Z,984.48
2019-03-10T05:53:38.255Z,984.51
2019-03-10T05:54:38.233Z,984.45
2019-03-10T05:55:38.324Z,984.42
2019-03-10T05:56:38.415Z,984.41
2019-03-10T05:57:38.506Z,984.37
2019-03-10T05:58:38.594Z,984.36
2019-03-10T05:59:38.744Z,984.37
2019-03-10T06:00:42.574Z,984.34
2019-03-10T06:01:38.924Z,984.33
2019-03-10T06:02:38.982Z,984.30
2019-03-10T06:03:39.106Z,984.28
2019-03-10T06:04:39.195Z,984.26
2019-03-10T06:05:39.287Z,984.18
2019-03-10T06:06:39.379Z,984.16
2019-03-10T06:07:39.468Z,984.12
2019-03-10T06:08:39.561Z,984.11
2019-03-10T06:09:39.651Z,984.07
2019-03-10T06:10:39.743Z,984.09
2019-03-10T06:11:39.833Z,984.05
2019-03-10T06:12:39.919Z,984.02
2019-03-10T06:13:40.009Z,983.96
2019-03-10T06:14:40.100Z,983.91
2019-03-10T06:15:40.201Z,983.89
2019-03-10T06:16:40.286Z,983.89
2019-03-10T06:17:40.370Z,983.86
2019-03-10T06:18:40.462Z,983.84
2019-03-10T06:19:40.549Z,983.82
2019-03-10T06:20:40.639Z,983.80
2019-03-10T06:21:40.731Z,983.74
2019-03-10T06:22:40.854Z,983.68
2019-03-10T06:23:41.048Z,983.64
2019-03-10T06:24:41.106Z,983.68
2019-03-10T06:25:42.032Z,983.63
2019-03-10T06:26:41.265Z,983.62
2019-03-10T06:27:41.356Z,983.60
2019-03-10T06:28:41.443Z,983.56
2019-03-10T06:29:41.541Z,983.54
2019-03-10T06:30:41.637Z,983.52
2019-03-10T06:31:41.713Z,983.46
2019-03-10T06:32:41.816Z,983.44
2019-03-10T06:33:42.190Z,983.37
2019-03-10T06:34:42.032Z,983.36
2019-03-10T06:35:42.125Z,983.36
2019-03-10T06:36:42.214Z,983.36
2019-03-10T06:37:42.303Z,983.34
2019-03-10T06:38:42.397Z,983.29
2019-03-10T06:39:42.489Z,983.33
2019-03-10T06:40:42.579Z,983.33
2019-03-10T06:41:42.917Z,983.27
2019-03-10T06:42:42.724Z,983.28
2019-03-10T06:43:42.851Z,983.26
2019-03-10T06:44:43.048Z,983.24
2019-03-10T06:45:43.089Z,983.21
2019-03-10T06:46:43.161Z,983.25
2019-03-10T06:47:44.355Z,983.16
2019-03-10T06:48:43.329Z,983.14
2019-03-10T06:49:43.418Z,983.10
2019-03-10T06:50:43.509Z,983.08
2019-03-10T06:51:43.600Z,983.09
2019-03-10T06:52:43.688Z,983.04
2019-03-10T06:53:43.776Z,983.02
2019-03-10T06:54:43.859Z,983.00
2019-03-10T06:55:43.955Z,982.99
2019-03-10T06:56:44.042Z,982.97
2019-03-10T06:57:44.133Z,982.96
2019-03-10T06:58:44.217Z,982.99
2019-03-10T06:59:44.308Z,982.91
2019-03-10T07:00:44.385Z,982.90
2019-03-10T07:01:44.496Z,982.83
2019-03-10T07:02:44.580Z,982.83
2019-03-10T07:03:44.676Z,982.75
2019-03-10T07:04:44.808Z,982.74
2019-03-10T07:05:45.023Z,982.69
2019-03-10T07:06:44.969Z,982.66
2019-03-10T07:07:45.056Z,982.63
2019-03-10T07:08:45.106Z,982.61
2019-03-10T07:09:45.194Z,982.57
2019-03-10T07:10:45.284Z,982.55
2019-03-10T07:11:45.375Z,982.47
2019-03-10T07:12:45.465Z,982.44
2019-03-10T07:13:46.075Z,982.39
2019-03-10T07:14:45.632Z,982.31
2019-03-10T07:15:45.723Z,982.27
2019-03-10T07:16:45.815Z,982.20
2019-03-10T07:17:45.899Z,982.18
2019-03-10T07:18:45.992Z,982.17
2019-03-10T07:19:46.085Z,982.17
2019-03-10T07:20:46.175Z,982.12
2019-03-10T07:21:46.274Z,982.08
2019-03-10T07:22:46.356Z,982.01
2019-03-10T07:23:46.443Z,981.99
2019-03-10T07:24:46.561Z,981.95
2019-03-10T07:25:46.616Z,981.93
2019-03-10T07:26:46.705Z,981.82
2019-03-10T07:27:46.802Z,981.78
2019-03-10T07:28:46.955Z,981.67
2019-03-10T07:29:47.099Z,981.64
2019-03-10T07:30:47.056Z,981.61
2019-03-10T07:31:47.147Z,981.54
2019-03-10T07:32:47.215Z,981.57
2019-03-10T07:33:47.308Z,981.55
2019-03-10T07:34:47.401Z,981.49
2019-03-10T07:35:47.483Z,981.46
2019-03-10T07:36:47.573Z,981.40
2019-03-10T07:37:47.666Z,981.50
2019-03-10T07:38:47.755Z,981.44
2019-03-10T07:39:47.847Z,981.39
2019-03-10T07:40:47.940Z,981.41
2019-03-10T07:41:48.029Z,981.25
2019-03-10T07:42:48.133Z,981.34
2019-03-10T07:43:48.224Z,981.45
2019-03-10T07:44:48.318Z,981.44
2019-03-10T07:45:48.419Z,981.46
2019-03-10T07:46:48.503Z,981.29
2019-03-10T07:47:48.593Z,981.11
2019-03-10T07:48:48.679Z,980.92
2019-03-10T07:49:48.779Z,980.81
2019-03-10T07:50:48.881Z,980.95
2019-03-10T07:51:48.988Z,981.03
2019-03-10T07:52:49.080Z,981.04
2019-03-10T07:53:49.204Z,980.98
2019-03-10T07:54:49.340Z,980.94
2019-03-10T07:55:49.337Z,980.91
2019-03-10T07:56:49.420Z,980.92
2019-03-10T07:57:49.516Z,980.92
2019-03-10T07:58:49.606Z,980.88
2019-03-10T07:59:49.700Z,980.83
2019-03-10T08:00:49.791Z,980.79
2019-03-10T08:01:49.902Z,980.86
2019-03-10T08:02:50.041Z,980.91
2019-03-10T08:03:50.071Z,980.90
2019-03-10T08:04:50.286Z,980.93
2019-03-10T08:05:50.255Z,980.92
2019-03-10T08:06:50.367Z,980.88
2019-03-10T08:07:50.419Z,980.84
2019-03-10T08:08:50.505Z,980.79
2019-03-10T08:09:50.603Z,980.75
2019-03-10T08:10:50.692Z,980.71
2019-03-10T08:11:50.826Z,980.68
2019-03-10T08:12:50.879Z,980.61
2019-03-10T08:13:51.008Z,980.60
2019-03-10T08:14:51.188Z,980.56
2019-03-10T08:15:51.243Z,980.53
2019-03-10T08:16:51.288Z,980.50
2019-03-10T08:17:51.376Z,980.47
2019-03-10T08:18:51.466Z,980.45
2019-03-10T08:19:51.553Z,980.36
2019-03-10T08:20:51.641Z,980.34
2019-03-10T08:21:51.733Z,980.31
2019-03-10T08:22:51.822Z,980.26
2019-03-10T08:23:51.912Z,980.24
2019-03-10T08:24:52.003Z,980.19
2019-03-10T08:25:52.090Z,980.19
2019-03-10T08:26:52.180Z,980.13
2019-03-10T08:28:01.257Z,980.09
2019-03-10T08:28:52.350Z,980.08
2019-03-10T08:29:52.448Z,980.06
2019-03-10T08:30:52.539Z,979.99
2019-03-10T08:31:52.628Z,980.04
2019-03-10T08:32:52.729Z,979.94
2019-03-10T08:33:53.666Z,979.85
2019-03-10T08:34:52.939Z,979.82
2019-03-10T08:35:52.994Z,979.81
2019-03-10T08:36:53.213Z,979.78
2019-03-10T08:37:53.210Z,979.80
2019-03-10T08:38:53.291Z,979.78
2019-03-10T08:39:53.387Z,979.73
2019-03-10T08:40:53.994Z,979.78
2019-03-10T08:41:53.639Z,979.74
2019-03-10T08:42:53.735Z,979.77
2019-03-10T08:43:53.825Z,979.79
2019-03-10T08:44:53.917Z,979.72
2019-03-10T08:45:54.009Z,979.74
2019-03-10T08:46:54.102Z,979.69
2019-03-10T08:47:54.190Z,979.71
2019-03-10T08:48:54.288Z,979.68
2019-03-10T08:49:54.367Z,979.63
2019-03-10T08:50:54.457Z,979.61
2019-03-10T08:51:54.547Z,979.59
2019-03-10T08:52:54.644Z,979.56
2019-03-10T08:53:54.750Z,979.56
2019-03-10T08:54:54.976Z,979.55
2019-03-10T08:55:55.028Z,979.48
2019-03-10T08:56:55.005Z,979.46
2019-03-10T08:57:55.098Z,979.41
2019-03-10T08:58:55.196Z,979.34
2019-03-10T08:59:55.437Z,979.34
2019-03-10T09:00:55.408Z,979.34
2019-03-10T09:01:55.495Z,979.25
2019-03-10T09:02:55.584Z,979.19
2019-03-10T09:03:55.684Z,979.23
2019-03-10T09:04:55.775Z,979.21
2019-03-10T09:05:55.852Z,979.18
2019-03-10T09:06:55.975Z,979.19
2019-03-10T09:07:56.036Z,979.21
2019-03-10T09:08:56.116Z,979.17
2019-03-10T09:09:56.206Z,979.17
2019-03-10T09:10:56.296Z,979.02
2019-03-10T09:11:56.444Z,978.99
2019-03-10T09:14:39.467Z,979.11
2019-03-10T09:15:41.145Z,979.08
2019-03-10T09:16:39.631Z,979.08
2019-03-10T09:17:39.721Z,979.00
2019-03-10T09:18:39.811Z,978.97
2019-03-10T09:19:39.902Z,978.94
2019-03-10T09:20:39.990Z,978.93
2019-03-10T09:21:40.085Z,978.93
2019-03-10T09:22:40.155Z,978.92
2019-03-10T09:25:24.279Z,978.70
2019-03-10T09:26:24.370Z,978.64
2019-03-10T09:27:24.458Z,978.61
2019-03-10T09:28:24.548Z,978.63
2019-03-10T09:29:24.629Z,978.56
2019-03-10T09:30:24.727Z,978.60
2019-03-10T09:31:24.806Z,978.66
2019-03-10T09:32:24.976Z,978.69
2019-03-10T09:33:24.969Z,978.69
2019-03-10T09:34:25.216Z,978.66
2019-03-10T09:35:25.113Z,978.68
2019-03-10T09:36:25.301Z,978.64
2019-03-10T09:37:25.338Z,978.57
2019-03-10T09:38:25.410Z,978.57
2019-03-10T09:39:25.505Z,978.60
2019-03-10T09:40:25.588Z,978.52
2019-03-10T09:41:25.697Z,978.40
2019-03-10T09:42:25.776Z,978.37
2019-03-10T09:43:25.867Z,978.40
2019-03-10T09:44:25.956Z,978.49
2019-03-10T09:45:26.047Z,978.39
2019-03-10T09:46:26.145Z,978.36
2019-03-10T09:47:26.244Z,978.36
2019-03-10T09:48:26.318Z,978.34
2019-03-10T09:49:26.426Z,978.39
2019-03-10T09:50:26.516Z,978.37
2019-03-10T09:51:26.609Z,978.33
2019-03-10T09:52:26.691Z,978.30
2019-03-10T09:53:26.854Z,978.27
2019-03-10T09:54:26.879Z,978.22
2019-03-10T09:55:27.021Z,978.27
2019-03-10T09:56:27.031Z,978.23
2019-03-10T09:59:10.039Z,978.22
2019-03-10T10:00:10.179Z,978.17
2019-03-10T10:01:10.288Z,978.18
2019-03-10T10:02:10.378Z,978.16
2019-03-10T10:03:10.472Z,978.12
2019-03-10T10:04:10.560Z,978.13
2019-03-10T10:05:10.650Z,978.10
2019-03-10T10:06:10.741Z,978.12
2019-03-10T10:07:10.954Z,978.08
2019-03-10T10:08:11.035Z,978.11
2019-03-10T10:09:11.153Z,978.16
2019-03-10T10:10:11.222Z,978.04
2019-03-10T10:11:11.304Z,978.06
2019-03-10T10:12:13.591Z,977.97
2019-03-10T10:13:11.479Z,977.95
2019-03-10T10:14:11.572Z,977.88
2019-03-10T10:15:11.697Z,977.86
2019-03-10T10:16:11.791Z,977.87
2019-03-10T10:17:11.882Z,977.85
2019-03-10T10:18:11.976Z,977.91
2019-03-10T10:19:12.074Z,977.98
2019-03-10T10:20:12.164Z,977.98
2019-03-10T10:21:12.257Z,978.01
2019-03-10T10:22:12.348Z,977.94
2019-03-10T10:23:12.438Z,977.88
2019-03-10T10:24:12.529Z,977.81
2019-03-10T10:25:12.625Z,977.84
2019-03-10T10:26:12.716Z,977.91
2019-03-10T10:27:12.816Z,977.97
2019-03-10T10:28:12.898Z,977.97
2019-03-10T10:29:13.022Z,977.94
2019-03-10T10:30:13.117Z,977.88
2019-03-10T10:31:14.065Z,977.94
2019-03-10T10:32:13.298Z,977.97
2019-03-10T10:33:13.368Z,977.81
2019-03-10T10:34:13.457Z,977.69
2019-03-10T10:35:13.550Z,977.57
2019-03-10T10:36:13.623Z,977.54
2019-03-10T10:37:13.720Z,977.67
2019-03-10T10:38:18.442Z,977.61
2019-03-10T10:39:13.903Z,977.66
2019-03-10T10:40:13.999Z,977.65
2019-03-10T10:41:14.089Z,977.57
2019-03-10T10:42:14.182Z,977.45
2019-03-10T10:43:14.275Z,977.41
2019-03-10T10:44:14.371Z,977.33
2019-03-10T10:45:14.461Z,977.25
2019-03-10T10:46:14.547Z,977.34
2019-03-10T10:47:14.633Z,977.14
2019-03-10T10:48:14.737Z,977.39
2019-03-10T10:49:14.837Z,977.37
2019-03-10T10:50:14.931Z,977.28
2019-03-10T10:51:15.084Z,977.26
2019-03-10T10:52:15.061Z,977.28
2019-03-10T10:53:15.214Z,977.25
2019-03-10T10:54:15.248Z,977.20
2019-03-10T10:55:15.342Z,977.34
2019-03-10T10:56:15.426Z,977.31
2019-03-10T10:57:15.517Z,977.29
2019-03-10T10:58:15.595Z,977.32
2019-03-10T10:59:15.701Z,977.22
2019-03-10T11:00:15.792Z,977.21
2019-03-10T11:01:15.886Z,977.16
2019-03-10T11:02:15.977Z,977.15
2019-03-10T11:03:16.076Z,977.18
2019-03-10T11:04:16.159Z,977.07
2019-03-10T11:05:16.256Z,977.08
2019-03-10T11:06:16.337Z,977.09
2019-03-10T11:07:16.435Z,977.08
2019-03-10T11:08:16.520Z,977.04
2019-03-10T11:09:16.612Z,976.99
2019-03-10T11:10:16.723Z,977.01
2019-03-10T11:11:16.781Z,976.94
2019-03-10T11:12:16.865Z,976.92
2019-03-10T11:13:17.011Z,976.85
2019-03-10T11:14:17.140Z,976.91
2019-03-10T11:15:17.129Z,976.71
2019-03-10T11:16:17.217Z,976.70
2019-03-10T11:17:17.301Z,976.63
2019-03-10T11:18:17.395Z,976.67
2019-03-10T11:19:17.485Z,976.64
2019-03-10T11:20:17.578Z,976.58
2019-03-10T11:21:17.671Z,976.57
2019-03-10T11:22:17.760Z,976.59
2019-03-10T11:23:17.855Z,976.55
2019-03-10T11:24:17.945Z,976.49
2019-03-10T11:25:18.038Z,976.49
2019-03-10T11:26:18.130Z,976.45
2019-03-10T11:27:18.216Z,976.47
2019-03-10T11:28:18.310Z,976.40
2019-03-10T11:29:18.407Z,976.37
2019-03-10T11:30:18.493Z,976.45
2019-03-10T11:31:18.585Z,976.39
2019-03-10T11:32:18.678Z,976.44
2019-03-10T11:33:18.832Z,976.47
2019-03-10T11:34:18.898Z,976.43
2019-03-10T11:35:18.993Z,976.31
2019-03-10T11:36:19.063Z,976.22
2019-03-10T11:37:19.213Z,976.24
2019-03-10T11:38:19.298Z,976.30
2019-03-10T11:39:19.390Z,976.21
2019-03-10T11:40:19.487Z,976.19
2019-03-10T11:41:19.579Z,976.17
2019-03-10T11:42:19.673Z,976.06
2019-03-10T11:43:19.770Z,976.04
2019-03-10T11:44:19.865Z,975.99
2019-03-10T11:45:19.957Z,975.96
2019-03-10T11:46:20.050Z,975.92
2019-03-10T11:47:20.154Z,975.91
2019-03-10T11:48:20.253Z,975.86
2019-03-10T11:49:20.343Z,975.89
2019-03-10T11:50:20.438Z,975.87
2019-03-10T11:51:20.529Z,975.85
2019-03-10T11:52:20.625Z,975.83
2019-03-10T11:53:20.718Z,975.81
2019-03-10T11:54:20.919Z,975.87
2019-03-10T11:55:21.165Z,975.87
2019-03-10T11:56:21.027Z,975.92
2019-03-10T11:57:21.103Z,975.89
2019-03-10T11:58:21.208Z,975.99
2019-03-10T11:59:21.260Z,976.09
2019-03-10T12:00:21.360Z,976.07
2019-03-10T12:01:21.451Z,976.06
2019-03-10T12:02:21.551Z,976.06
2019-03-10T12:03:21.646Z,976.19
2019-03-10T12:04:21.731Z,976.09
2019-03-10T12:05:21.827Z,976.16
2019-03-10T12:06:21.920Z,976.12
2019-03-10T12:07:22.021Z,976.08
2019-03-10T12:08:22.113Z,976.08
2019-03-10T12:09:22.209Z,976.06
2019-03-10T12:10:22.307Z,976.06
2019-03-10T12:11:22.395Z,975.97
2019-03-10T12:12:22.490Z,975.89
2019-03-10T12:13:22.587Z,975.87
2019-03-10T12:14:22.761Z,975.76
2019-03-10T12:15:22.733Z,975.71
2019-03-10T12:16:22.820Z,975.62
2019-03-10T12:17:22.968Z,975.64
2019-03-10T12:18:23.044Z,975.61
2019-03-10T12:19:23.144Z,975.61
2019-03-10T12:20:23.237Z,975.53
2019-03-10T12:21:23.325Z,975.53
2019-03-10T12:22:23.425Z,975.43
2019-03-10T12:23:23.526Z,975.43
2019-03-10T12:24:23.617Z,975.32
2019-03-10T12:25:23.719Z,975.36
2019-03-10T12:26:23.814Z,975.32
2019-03-10T12:27:23.909Z,975.29
2019-03-10T12:28:23.999Z,975.27
2019-03-10T12:29:24.103Z,975.33
2019-03-10T12:30:24.248Z,975.41
2019-03-10T12:31:24.291Z,975.59
2019-03-10T12:32:24.402Z,975.67
2019-03-10T12:33:24.474Z,975.78
2019-03-10T12:34:24.589Z,975.80